createdAt,value
2023-05-09T04:00:36.147Z,5.62
2023-05-09T04:01:39.529Z,5.62
2023-05-09T04:02:37.274Z,5.62
2023-05-09T04:03:37.194Z,5.62
2023-05-09T04:04:37.096Z,5.62
2023-05-09T04:05:37.100Z,5.62
2023-05-09T04:06:37.085Z,5.62
2023-05-09T04:07:37.095Z,5.62
2023-05-09T04:08:37.103Z,5.62
2023-05-09T04:09:37.052Z,5.62
2023-05-09T04:10:37.041Z,5.62
2023-05-09T04:11:37.043Z,5.62
2023-05-09T04:12:37.023Z,5.62
2023-05-09T04:13:37.003Z,5.62
2023-05-09T04:14:36.983Z,5.62
2023-05-09T04:15:36.978Z,11.25
2023-05-09T04:16:37.027Z,11.25
2023-05-09T04:17:36.979Z,11.25
2023-05-09T04:18:36.994Z,11.25
2023-05-09T04:19:36.946Z,11.25
2023-05-09T04:20:36.914Z,11.25
2023-05-09T04:21:36.914Z,11.25
2023-05-09T04:22:36.897Z,11.25
2023-05-09T04:23:36.893Z,11.25
2023-05-09T04:24:36.939Z,11.25
2023-05-09T04:25:36.883Z,11.25
2023-05-09T04:26:36.882Z,11.25
2023-05-09T04:27:36.873Z,11.25
2023-05-09T04:28:36.872Z,11.25
2023-05-09T04:29:36.813Z,11.25
2023-05-09T04:30:36.857Z,11.25
2023-05-09T04:31:36.921Z,11.25
2023-05-09T04:32:36.851Z,11.25
2023-05-09T04:33:36.801Z,11.25
2023-05-09T04:34:36.766Z,11.25
2023-05-09T04:35:36.759Z,11.25
2023-05-09T04:36:36.753Z,11.25
2023-05-09T04:37:36.729Z,11.25
2023-05-09T04:38:36.737Z,11.25
2023-05-09T04:39:36.743Z,11.25
2023-05-09T04:40:36.691Z,11.25
2023-05-09T04:41:36.699Z,11.25
2023-05-09T04:42:36.825Z,11.25
2023-05-09T04:43:36.767Z,11.25
2023-05-09T04:44:36.661Z,16.88
2023-05-09T04:45:36.631Z,16.88
2023-05-09T04:46:36.756Z,16.88
2023-05-09T04:47:36.625Z,16.88
2023-05-09T04:48:36.617Z,16.88
2023-05-09T04:49:36.609Z,16.88
2023-05-09T04:50:36.619Z,16.88
2023-05-09T04:51:36.573Z,16.88
2023-05-09T04:52:36.604Z,16.88
2023-05-09T04:53:36.577Z,16.88
2023-05-09T04:54:36.550Z,16.88
2023-05-09T04:55:36.545Z,16.88
2023-05-09T04:56:36.524Z,16.88
2023-05-09T04:57:36.517Z,16.88
2023-05-09T04:58:36.520Z,16.88
2023-05-09T04:59:36.487Z,16.88
2023-05-09T05:00:36.502Z,16.88
2023-05-09T05:01:36.495Z,16.88
2023-05-09T05:02:36.551Z,16.88
2023-05-09T05:03:36.459Z,16.88
2023-05-09T05:04:36.463Z,16.88
2023-05-09T05:05:37.608Z,16.88
2023-05-09T05:06:36.428Z,16.88
2023-05-09T05:07:36.407Z,16.88
2023-05-09T05:08:36.388Z,16.88
2023-05-09T05:09:36.721Z,16.88
2023-05-09T05:10:36.370Z,22.50
2023-05-09T05:11:36.374Z,22.50
2023-05-09T05:12:36.349Z,22.50
2023-05-09T05:13:36.357Z,22.50
2023-05-09T05:14:36.361Z,22.50
2023-05-09T05:15:36.326Z,22.50
2023-05-09T05:16:36.386Z,22.50
2023-05-09T05:17:36.331Z,22.50
2023-05-09T05:18:36.281Z,22.50
2023-05-09T05:19:36.277Z,22.50
2023-05-09T05:20:36.267Z,22.50
2023-05-09T05:21:36.251Z,22.50
2023-05-09T05:22:36.278Z,22.50
2023-05-09T05:23:36.223Z,22.50
2023-05-09T05:24:36.234Z,22.50
2023-05-09T05:25:36.236Z,22.50
2023-05-09T05:26:36.205Z,22.50
2023-05-09T05:27:36.186Z,22.50
2023-05-09T05:28:36.186Z,22.50
2023-05-09T05:29:36.163Z,22.50
2023-05-09T05:30:36.141Z,22.50
2023-05-09T05:31:36.170Z,22.50
2023-05-09T05:32:36.230Z,22.50
2023-05-09T05:33:36.105Z,22.50
2023-05-09T05:34:36.107Z,28.12
2023-05-09T05:35:36.127Z,28.12
2023-05-09T05:36:36.092Z,28.12
2023-05-09T05:37:36.060Z,28.12
2023-05-09T05:38:36.074Z,28.12
2023-05-09T05:39:36.077Z,28.12
2023-05-09T05:40:36.063Z,28.12
2023-05-09T05:41:36.072Z,28.12
2023-05-09T05:42:36.128Z,28.12
2023-05-09T05:43:36.027Z,28.12
2023-05-09T05:44:36.003Z,28.12
2023-05-09T05:45:36.020Z,28.12
2023-05-09T05:46:35.975Z,28.12
2023-05-09T05:47:36.005Z,28.12
2023-05-09T05:48:36.094Z,28.12
2023-05-09T05:49:35.989Z,28.12
2023-05-09T05:50:35.933Z,28.12
2023-05-09T05:51:35.906Z,28.12
2023-05-09T05:52:35.917Z,28.12
2023-05-09T05:53:35.874Z,28.12
2023-05-09T05:54:35.888Z,28.12
2023-05-09T05:55:35.865Z,28.12
2023-05-09T05:56:35.852Z,28.12
2023-05-09T05:57:35.853Z,33.75
2023-05-09T05:58:35.868Z,33.75
2023-05-09T05:59:35.832Z,33.75
2023-05-09T06:00:35.802Z,33.75
2023-05-09T06:01:35.795Z,33.75
2023-05-09T06:02:35.845Z,33.75
2023-05-09T06:03:35.839Z,33.75
2023-05-09T06:04:35.788Z,33.75
2023-05-09T06:05:35.739Z,33.75
2023-05-09T06:06:35.752Z,33.75
2023-05-09T06:07:35.738Z,33.75
2023-05-09T06:08:35.752Z,33.75
2023-05-09T06:09:35.743Z,33.75
2023-05-09T06:10:35.724Z,33.75
2023-05-09T06:11:35.703Z,33.75
2023-05-09T06:12:35.682Z,33.75
2023-05-09T06:13:35.669Z,33.75
2023-05-09T06:14:35.689Z,39.38
2023-05-09T06:15:35.641Z,39.38
2023-05-09T06:16:35.713Z,39.38
2023-05-09T06:17:35.700Z,39.38
2023-05-09T06:18:35.616Z,39.38
2023-05-09T06:19:35.622Z,39.38
2023-05-09T06:20:35.624Z,39.38
2023-05-09T06:21:35.614Z,39.38
2023-05-09T06:22:35.572Z,39.38
2023-05-09T06:23:35.550Z,39.38
2023-05-09T06:24:36.460Z,39.38
2023-05-09T06:25:35.553Z,39.38
2023-05-09T06:26:35.539Z,39.38
2023-05-09T06:27:35.520Z,39.38
2023-05-09T06:28:35.529Z,39.38
2023-05-09T06:29:35.526Z,39.38
2023-05-09T06:30:35.523Z,39.38
2023-05-09T06:31:35.512Z,39.38
2023-05-09T06:32:35.481Z,39.38
2023-05-09T06:33:35.446Z,39.38
2023-05-09T06:34:35.443Z,39.38
2023-05-09T06:35:35.433Z,39.38
2023-05-09T06:36:35.421Z,39.38
2023-05-09T06:37:35.471Z,39.38
2023-05-09T06:38:35.403Z,39.38
2023-05-09T06:39:35.383Z,39.38
2023-05-09T06:40:35.367Z,39.38
2023-05-09T06:41:35.363Z,39.38
2023-05-09T06:42:35.352Z,39.38
2023-05-09T06:43:35.374Z,39.38
2023-05-09T06:44:35.321Z,39.38
2023-05-09T06:45:35.495Z,39.38
2023-05-09T06:46:35.402Z,39.38
2023-05-09T06:47:35.339Z,39.38
2023-05-09T06:48:35.309Z,45.00
2023-05-09T06:49:35.268Z,45.00
2023-05-09T06:50:35.272Z,45.00
2023-05-09T06:51:35.248Z,45.00
2023-05-09T06:52:35.231Z,45.00
2023-05-09T06:53:35.234Z,45.00
2023-05-09T06:54:35.213Z,45.00
2023-05-09T06:55:35.216Z,45.00
2023-05-09T06:56:35.197Z,45.00
2023-05-09T06:57:35.172Z,45.00
2023-05-09T06:58:35.182Z,50.62
2023-05-09T06:59:35.177Z,50.62
2023-05-09T07:00:35.149Z,50.62
2023-05-09T07:01:35.174Z,50.62
2023-05-09T07:02:35.140Z,50.62
2023-05-09T07:03:35.114Z,50.62
2023-05-09T07:04:35.169Z,50.62
2023-05-09T07:05:35.142Z,50.62
2023-05-09T07:06:35.094Z,50.62
2023-05-09T07:07:35.062Z,50.62
2023-05-09T07:08:35.078Z,56.25
2023-05-09T07:09:35.055Z,56.25
2023-05-09T07:10:35.053Z,56.25
2023-05-09T07:11:35.142Z,56.25
2023-05-09T07:12:35.030Z,56.25
2023-05-09T07:13:35.012Z,56.25
2023-05-09T07:14:35.087Z,56.25
2023-05-09T07:15:41.847Z,61.88
2023-05-09T07:16:37.388Z,56.25
2023-05-09T07:17:34.981Z,61.88
2023-05-09T07:18:34.954Z,61.88
2023-05-09T07:19:34.958Z,61.88
2023-05-09T07:20:34.970Z,61.88
2023-05-09T07:21:34.918Z,61.88
2023-05-09T07:22:37.194Z,61.88
2023-05-09T07:23:34.885Z,61.88
2023-05-09T07:24:34.879Z,61.88
2023-05-09T07:25:34.877Z,61.88
2023-05-09T07:26:34.858Z,61.88
2023-05-09T07:27:34.851Z,61.88
2023-05-09T07:28:34.830Z,61.88
2023-05-09T07:29:34.821Z,67.50
2023-05-09T07:30:34.847Z,67.50
2023-05-09T07:31:37.215Z,67.50
2023-05-09T07:32:34.816Z,67.50
2023-05-09T07:33:34.800Z,67.50
2023-05-09T07:34:34.763Z,67.50
2023-05-09T07:35:34.783Z,67.50
2023-05-09T07:36:35.486Z,67.50
2023-05-09T07:37:34.747Z,67.50
2023-05-09T07:38:34.727Z,67.50
2023-05-09T07:39:34.726Z,67.50
2023-05-09T07:40:34.704Z,67.50
2023-05-09T07:41:34.703Z,67.50
2023-05-09T07:42:34.723Z,67.50
2023-05-09T07:43:34.671Z,67.50
2023-05-09T07:44:34.649Z,67.50
2023-05-09T07:45:34.770Z,67.50
2023-05-09T07:46:34.631Z,73.12
2023-05-09T07:47:34.672Z,67.50
2023-05-09T07:48:34.613Z,73.12
2023-05-09T07:49:34.605Z,73.12
2023-05-09T07:50:34.615Z,67.50
2023-05-09T07:51:34.600Z,73.12
2023-05-09T07:52:34.575Z,73.12
2023-05-09T07:53:34.581Z,73.12
2023-05-09T07:54:34.545Z,73.12
2023-05-09T07:55:34.542Z,73.12
2023-05-09T07:56:34.530Z,73.12
2023-05-09T07:57:34.523Z,73.12
2023-05-09T07:58:34.508Z,73.12
2023-05-09T07:59:34.516Z,73.12
2023-05-09T08:00:34.495Z,73.12
2023-05-09T08:01:34.477Z,73.12
2023-05-09T08:02:34.624Z,73.12
2023-05-09T08:03:34.527Z,73.12
2023-05-09T08:04:34.564Z,73.12
2023-05-09T08:05:34.433Z,73.12
2023-05-09T08:06:34.405Z,73.12
2023-05-09T08:07:34.424Z,78.75
2023-05-09T08:08:34.417Z,73.12
2023-05-09T08:09:34.380Z,73.12
2023-05-09T08:10:34.392Z,78.75
2023-05-09T08:11:34.374Z,78.75
2023-05-09T08:12:34.337Z,78.75
2023-05-09T08:13:34.350Z,78.75
2023-05-09T08:14:34.328Z,78.75
2023-05-09T08:15:34.339Z,78.75
2023-05-09T08:16:34.367Z,78.75
2023-05-09T08:17:34.317Z,78.75
2023-05-09T08:18:34.268Z,78.75
2023-05-09T08:19:34.283Z,78.75
2023-05-09T08:20:34.251Z,78.75
2023-05-09T08:21:34.284Z,78.75
2023-05-09T08:22:34.224Z,78.75
2023-05-09T08:23:34.250Z,78.75
2023-05-09T08:24:34.225Z,78.75
2023-05-09T08:25:34.215Z,78.75
2023-05-09T08:26:34.199Z,78.75
2023-05-09T08:27:34.190Z,78.75
2023-05-09T08:28:34.186Z,78.75
2023-05-09T08:29:34.171Z,78.75
2023-05-09T08:30:34.155Z,78.75
2023-05-09T08:31:34.210Z,78.75
2023-05-09T08:32:34.172Z,78.75
2023-05-09T08:33:34.114Z,84.38
2023-05-09T08:34:34.123Z,84.38
2023-05-09T08:35:34.101Z,84.38
2023-05-09T08:36:34.104Z,78.75
2023-05-09T08:37:34.097Z,84.38
2023-05-09T08:38:34.069Z,84.38
2023-05-09T08:39:34.054Z,84.38
2023-05-09T08:40:34.080Z,84.38
2023-05-09T08:41:34.080Z,84.38
2023-05-09T08:42:34.023Z,84.38
2023-05-09T08:43:34.048Z,84.38
2023-05-09T08:44:34.001Z,84.38
2023-05-09T08:45:33.975Z,84.38
2023-05-09T08:46:34.042Z,84.38
2023-05-09T08:47:33.998Z,84.38
2023-05-09T08:48:35.923Z,90.00
2023-05-09T08:49:33.944Z,84.38
2023-05-09T08:50:33.921Z,90.00
2023-05-09T08:51:33.916Z,90.00
2023-05-09T08:52:33.903Z,90.00
2023-05-09T08:53:33.898Z,90.00
2023-05-09T08:54:33.888Z,90.00
2023-05-09T08:55:33.874Z,95.62
2023-05-09T08:56:33.873Z,95.62
2023-05-09T08:57:33.845Z,95.62
2023-05-09T08:58:33.837Z,95.62
2023-05-09T08:59:33.824Z,101.25
2023-05-09T09:00:33.821Z,95.62
2023-05-09T09:01:33.884Z,95.62
2023-05-09T09:02:33.846Z,101.25
2023-05-09T09:03:33.785Z,101.25
2023-05-09T09:04:33.791Z,101.25
2023-05-09T09:05:41.205Z,101.25
2023-05-09T09:06:33.753Z,101.25
2023-05-09T09:07:33.739Z,101.25
2023-05-09T09:08:33.733Z,101.25
2023-05-09T09:09:33.743Z,101.25
2023-05-09T09:10:33.719Z,101.25
2023-05-09T09:11:33.743Z,106.88
2023-05-09T09:12:33.689Z,106.88
2023-05-09T09:13:33.750Z,101.25
2023-05-09T09:14:33.655Z,106.88
2023-05-09T09:15:33.652Z,101.25
2023-05-09T09:16:33.664Z,106.88
2023-05-09T09:17:33.656Z,106.88
2023-05-09T09:18:33.608Z,106.88
2023-05-09T09:19:33.628Z,106.88
2023-05-09T09:20:33.585Z,106.88
2023-05-09T09:21:33.607Z,106.88
2023-05-09T09:22:33.573Z,106.88
2023-05-09T09:23:33.554Z,106.88
2023-05-09T09:24:33.587Z,101.25
2023-05-09T09:25:33.539Z,101.25
2023-05-09T09:26:33.567Z,101.25
2023-05-09T09:27:33.515Z,101.25
2023-05-09T09:28:33.504Z,101.25
2023-05-09T09:29:33.496Z,106.88
2023-05-09T09:30:33.473Z,101.25
2023-05-09T09:31:33.566Z,101.25
2023-05-09T09:32:33.508Z,101.25
2023-05-09T09:33:33.444Z,101.25
2023-05-09T09:34:33.506Z,101.25
2023-05-09T09:35:33.430Z,101.25
2023-05-09T09:36:33.473Z,101.25
2023-05-09T09:37:33.414Z,101.25
2023-05-09T09:38:33.398Z,101.25
2023-05-09T09:39:34.143Z,101.25
2023-05-09T09:40:33.379Z,106.88
2023-05-09T09:41:33.480Z,101.25
2023-05-09T09:42:33.367Z,106.88
2023-05-09T09:43:33.339Z,106.88
2023-05-09T09:44:33.325Z,106.88
2023-05-09T09:45:33.336Z,106.88
2023-05-09T09:46:33.411Z,106.88
2023-05-09T09:47:33.371Z,106.88
2023-05-09T09:48:33.470Z,106.88
2023-05-09T09:49:33.272Z,106.88
2023-05-09T09:50:33.254Z,106.88
2023-05-09T09:51:33.263Z,106.88
2023-05-09T09:52:33.243Z,106.88
2023-05-09T09:53:33.238Z,106.88
2023-05-09T09:54:33.210Z,112.50
2023-05-09T09:55:33.207Z,106.88
2023-05-09T09:56:33.208Z,106.88
2023-05-09T09:57:33.195Z,106.88
2023-05-09T09:58:33.174Z,112.50
2023-05-09T09:59:33.161Z,112.50
2023-05-09T10:00:33.144Z,112.50
2023-05-09T10:01:33.169Z,112.50
2023-05-09T10:02:33.165Z,112.50
2023-05-09T10:03:33.214Z,118.12
2023-05-09T10:04:33.100Z,118.12
2023-05-09T10:05:33.126Z,118.12
2023-05-09T10:06:33.082Z,118.12
2023-05-09T10:07:33.094Z,118.12
2023-05-09T10:08:33.062Z,118.12
2023-05-09T10:09:33.053Z,123.75
2023-05-09T10:10:33.059Z,123.75
2023-05-09T10:11:33.030Z,129.38
2023-05-09T10:12:33.043Z,123.75
2023-05-09T10:13:33.026Z,129.38
2023-05-09T10:14:35.165Z,129.38
2023-05-09T10:15:41.313Z,129.38
2023-05-09T10:16:43.039Z,129.38
2023-05-09T10:17:33.073Z,129.38
2023-05-09T10:18:33.116Z,129.38
2023-05-09T10:19:32.983Z,135.00
2023-05-09T10:20:32.930Z,135.00
2023-05-09T10:21:32.912Z,135.00
2023-05-09T10:22:33.018Z,140.62
2023-05-09T10:23:32.978Z,140.62
2023-05-09T10:24:32.877Z,140.62
2023-05-09T10:25:32.884Z,140.62
2023-05-09T10:26:32.924Z,140.62
2023-05-09T10:27:32.891Z,140.62
2023-05-09T10:28:32.847Z,146.25
2023-05-09T10:29:32.848Z,140.62
2023-05-09T10:30:34.093Z,146.25
2023-05-09T10:31:32.833Z,146.25
2023-05-09T10:32:32.817Z,151.88
2023-05-09T10:33:32.777Z,151.88
2023-05-09T10:34:32.770Z,157.50
2023-05-09T10:35:32.765Z,157.50
2023-05-09T10:36:32.741Z,157.50
2023-05-09T10:37:33.547Z,157.50
2023-05-09T10:38:32.714Z,163.12
2023-05-09T10:39:32.717Z,163.12
2023-05-09T10:40:32.699Z,157.50
2023-05-09T10:41:32.691Z,163.12
2023-05-09T10:42:32.695Z,163.12
2023-05-09T10:43:34.200Z,163.12
2023-05-09T10:44:32.652Z,157.50
2023-05-09T10:45:32.650Z,157.50
2023-05-09T10:46:32.735Z,163.12
2023-05-09T10:47:32.656Z,163.12
2023-05-09T10:48:32.613Z,163.12
2023-05-09T10:49:34.311Z,163.12
2023-05-09T10:50:32.590Z,163.12
2023-05-09T10:51:32.595Z,163.12
2023-05-09T10:52:32.557Z,163.12
2023-05-09T10:53:32.555Z,163.12
2023-05-09T10:54:32.545Z,163.12
2023-05-09T10:55:32.524Z,163.12
2023-05-09T10:56:32.538Z,163.12
2023-05-09T10:57:32.550Z,163.12
2023-05-09T10:58:32.507Z,163.12
2023-05-09T10:59:32.494Z,163.12
2023-05-09T11:00:32.548Z,163.12
2023-05-09T11:01:32.467Z,163.12
2023-05-09T11:02:32.620Z,163.12
2023-05-09T11:03:32.559Z,163.12
2023-05-09T11:04:32.448Z,163.12
2023-05-09T11:05:32.417Z,163.12
2023-05-09T11:06:32.399Z,163.12
2023-05-09T11:07:32.395Z,163.12
2023-05-09T11:08:32.395Z,163.12
2023-05-09T11:09:32.384Z,163.12
2023-05-09T11:10:32.404Z,163.12
2023-05-09T11:11:32.367Z,163.12
2023-05-09T11:12:32.347Z,163.12
2023-05-09T11:13:32.422Z,163.12
2023-05-09T11:14:32.401Z,163.12
2023-05-09T11:15:32.314Z,163.12
2023-05-09T11:16:32.307Z,163.12
2023-05-09T11:17:32.419Z,163.12
2023-05-09T11:18:32.293Z,163.12
2023-05-09T11:19:32.272Z,163.12
2023-05-09T11:20:32.280Z,163.12
2023-05-09T11:21:32.245Z,157.50
2023-05-09T11:22:32.303Z,157.50
2023-05-09T11:23:32.237Z,157.50
2023-05-09T11:24:32.256Z,157.50
2023-05-09T11:25:32.199Z,157.50
2023-05-09T11:26:32.187Z,157.50
2023-05-09T11:27:32.176Z,157.50
2023-05-09T11:28:32.195Z,157.50
2023-05-09T11:29:32.151Z,157.50
2023-05-09T11:30:32.145Z,157.50
2023-05-09T11:31:32.187Z,157.50
2023-05-09T11:32:32.186Z,157.50
2023-05-09T11:33:32.128Z,157.50
2023-05-09T11:34:32.103Z,157.50
2023-05-09T11:35:32.109Z,157.50
2023-05-09T11:36:32.093Z,157.50
2023-05-09T11:37:32.073Z,157.50
2023-05-09T11:38:32.066Z,157.50
2023-05-09T11:39:32.053Z,157.50
2023-05-09T11:40:32.041Z,157.50
2023-05-09T11:41:32.027Z,157.50
2023-05-09T11:42:32.010Z,157.50
2023-05-09T11:43:32.001Z,163.12
2023-05-09T11:44:31.993Z,163.12
2023-05-09T11:45:31.971Z,163.12
2023-05-09T11:46:32.048Z,168.75
2023-05-09T11:47:31.969Z,163.12
2023-05-09T11:48:31.944Z,163.12
2023-05-09T11:49:31.959Z,163.12
2023-05-09T11:50:31.984Z,168.75
2023-05-09T11:51:31.911Z,180.00
2023-05-09T11:52:31.904Z,191.25
2023-05-09T11:53:31.886Z,196.88
2023-05-09T11:54:31.904Z,196.88
2023-05-09T11:55:31.876Z,202.50
2023-05-09T11:56:31.856Z,213.75
2023-05-09T11:57:31.855Z,213.75
2023-05-09T11:58:31.869Z,208.12
2023-05-09T11:59:31.817Z,213.75
2023-05-09T12:00:31.832Z,225.00
2023-05-09T12:01:31.791Z,236.25
2023-05-09T12:02:31.836Z,247.50
2023-05-09T12:03:31.895Z,253.12
2023-05-09T12:04:31.858Z,253.12
2023-05-09T12:05:31.760Z,241.88
2023-05-09T12:06:31.740Z,236.25
2023-05-09T12:07:31.727Z,236.25
2023-05-09T12:08:31.740Z,236.25
2023-05-09T12:09:31.711Z,236.25
2023-05-09T12:10:31.745Z,236.25
2023-05-09T12:11:31.680Z,253.12
2023-05-09T12:12:31.679Z,258.75
2023-05-09T12:13:31.768Z,258.75
2023-05-09T12:14:31.680Z,258.75
2023-05-09T12:15:31.653Z,270.00
2023-05-09T12:16:31.662Z,275.62
2023-05-09T12:17:31.656Z,275.62
2023-05-09T12:18:31.673Z,281.25
2023-05-09T12:19:31.601Z,286.88
2023-05-09T12:20:31.603Z,275.62
2023-05-09T12:21:31.589Z,281.25
2023-05-09T12:22:31.564Z,298.12
2023-05-09T12:23:31.570Z,309.38
2023-05-09T12:24:31.565Z,303.75
2023-05-09T12:25:31.556Z,298.12
2023-05-09T12:26:31.553Z,298.12
2023-05-09T12:27:31.526Z,303.75
2023-05-09T12:28:31.511Z,320.62
2023-05-09T12:29:31.495Z,320.62
2023-05-09T12:30:31.507Z,315.00
2023-05-09T12:31:31.490Z,331.88
2023-05-09T12:32:31.547Z,326.25
2023-05-09T12:33:31.440Z,320.62
2023-05-09T12:34:31.438Z,354.38
2023-05-09T12:35:31.483Z,360.00
2023-05-09T12:36:31.418Z,360.00
2023-05-09T12:37:31.410Z,360.00
2023-05-09T12:38:31.455Z,360.00
2023-05-09T12:39:31.384Z,360.00
2023-05-09T12:40:31.397Z,371.25
2023-05-09T12:41:39.291Z,371.25
2023-05-09T12:42:31.364Z,376.88
2023-05-09T12:43:31.338Z,376.88
2023-05-09T12:44:31.322Z,376.88
2023-05-09T12:45:31.343Z,388.12
2023-05-09T12:46:31.325Z,382.50
2023-05-09T12:47:31.395Z,399.38
2023-05-09T12:48:31.282Z,433.12
2023-05-09T12:49:31.316Z,416.25
2023-05-09T12:50:31.288Z,421.88
2023-05-09T12:51:31.256Z,433.12
2023-05-09T12:52:31.251Z,427.50
2023-05-09T12:53:31.231Z,416.25
2023-05-09T12:54:31.898Z,455.62
2023-05-09T12:55:31.216Z,455.62
2023-05-09T12:56:31.200Z,438.75
2023-05-09T12:57:31.760Z,478.12
2023-05-09T12:58:31.209Z,483.75
2023-05-09T12:59:31.167Z,472.50
2023-05-09T13:00:31.245Z,483.75
2023-05-09T13:01:31.178Z,495.00
2023-05-09T13:02:31.194Z,506.25
2023-05-09T13:03:31.291Z,489.38
2023-05-09T13:04:31.119Z,517.50
2023-05-09T13:05:31.121Z,500.62
2023-05-09T13:06:31.087Z,466.88
2023-05-09T13:07:31.099Z,500.62
2023-05-09T13:08:31.082Z,517.50
2023-05-09T13:09:31.048Z,523.12
2023-05-09T13:10:31.092Z,540.00
2023-05-09T13:11:31.041Z,523.12
2023-05-09T13:12:31.020Z,551.25
2023-05-09T13:13:31.008Z,534.38
2023-05-09T13:14:31.055Z,511.88
2023-05-09T13:15:31.001Z,551.25
2023-05-09T13:16:31.101Z,562.50
2023-05-09T13:17:30.993Z,562.50
2023-05-09T13:18:30.960Z,596.25
2023-05-09T13:19:30.943Z,618.75
2023-05-09T13:20:30.941Z,562.50
2023-05-09T13:21:30.933Z,573.75
2023-05-09T13:22:30.934Z,618.75
2023-05-09T13:23:30.911Z,596.25
2023-05-09T13:24:30.918Z,601.88
2023-05-09T13:25:30.891Z,590.62
2023-05-09T13:26:30.944Z,585.00
2023-05-09T13:27:30.883Z,579.38
2023-05-09T13:28:30.850Z,562.50
2023-05-09T13:29:30.848Z,590.62
2023-05-09T13:30:30.866Z,601.88
2023-05-09T13:31:30.846Z,624.38
2023-05-09T13:32:30.829Z,641.25
2023-05-09T13:33:30.858Z,601.88
2023-05-09T13:34:30.798Z,618.75
2023-05-09T13:35:30.786Z,658.12
2023-05-09T13:36:30.766Z,663.75
2023-05-09T13:37:30.758Z,708.75
2023-05-09T13:38:30.793Z,669.38
2023-05-09T13:39:30.740Z,652.50
2023-05-09T13:40:31.201Z,703.12
2023-05-09T13:41:30.722Z,663.75
2023-05-09T13:42:30.722Z,669.38
2023-05-09T13:43:30.689Z,708.75
2023-05-09T13:44:30.720Z,652.50
2023-05-09T13:45:30.672Z,669.38
2023-05-09T13:46:30.723Z,697.50
2023-05-09T13:47:30.691Z,736.88
2023-05-09T13:48:30.652Z,720.00
2023-05-09T13:49:30.616Z,658.12
2023-05-09T13:50:30.627Z,635.62
2023-05-09T13:51:30.641Z,686.25
2023-05-09T13:52:30.613Z,736.88
2023-05-09T13:53:30.596Z,753.75
2023-05-09T13:54:30.582Z,736.88
2023-05-09T13:55:30.586Z,686.25
2023-05-09T13:56:30.568Z,652.50
2023-05-09T13:57:30.554Z,697.50
2023-05-09T13:58:30.562Z,776.25
2023-05-09T13:59:30.531Z,753.75
2023-05-09T14:00:30.571Z,697.50
2023-05-09T14:01:30.565Z,697.50
2023-05-09T14:02:30.544Z,714.38
2023-05-09T14:03:31.416Z,708.75
2023-05-09T14:04:30.481Z,697.50
2023-05-09T14:05:30.480Z,708.75
2023-05-09T14:06:30.481Z,703.12
2023-05-09T14:07:30.438Z,686.25
2023-05-09T14:08:30.449Z,748.12
2023-05-09T14:09:30.437Z,776.25
2023-05-09T14:10:30.428Z,753.75
2023-05-09T14:11:30.426Z,748.12
2023-05-09T14:12:30.417Z,748.12
2023-05-09T14:13:30.471Z,708.75
2023-05-09T14:14:30.518Z,646.88
2023-05-09T14:15:30.381Z,708.75
2023-05-09T14:16:30.449Z,770.62
2023-05-09T14:17:30.403Z,725.62
2023-05-09T14:18:30.340Z,669.38
2023-05-09T14:19:30.335Z,658.12
2023-05-09T14:20:30.319Z,691.88
2023-05-09T14:21:30.336Z,725.62
2023-05-09T14:22:30.352Z,714.38
2023-05-09T14:23:30.302Z,742.50
2023-05-09T14:24:30.283Z,810.00
2023-05-09T14:25:30.254Z,826.88
2023-05-09T14:26:30.286Z,753.75
2023-05-09T14:27:30.241Z,770.62
2023-05-09T14:28:30.229Z,798.75
2023-05-09T14:29:30.370Z,776.25
2023-05-09T14:30:30.210Z,742.50
2023-05-09T14:31:30.224Z,753.75
2023-05-09T14:32:30.196Z,781.88
2023-05-09T14:33:30.187Z,804.38
2023-05-09T14:34:30.178Z,781.88
2023-05-09T14:35:30.214Z,781.88
2023-05-09T14:36:30.184Z,776.25
2023-05-09T14:37:30.128Z,770.62
2023-05-09T14:38:30.131Z,742.50
2023-05-09T14:39:30.114Z,691.88
2023-05-09T14:40:30.139Z,697.50
2023-05-09T14:41:30.112Z,742.50
2023-05-09T14:42:30.106Z,781.88
2023-05-09T14:43:30.071Z,573.75
2023-05-09T14:44:30.067Z,686.25
2023-05-09T14:45:30.054Z,399.38
2023-05-09T14:46:30.091Z,697.50
2023-05-09T14:47:30.071Z,579.38
2023-05-09T14:48:30.029Z,748.12
2023-05-09T14:49:30.014Z,461.25
2023-05-09T14:50:30.009Z,573.75
2023-05-09T14:51:30.006Z,343.12
2023-05-09T14:52:29.982Z,585.00
2023-05-09T14:53:29.966Z,410.62
2023-05-09T14:54:29.967Z,810.00
2023-05-09T14:55:29.967Z,675.00
2023-05-09T14:56:29.956Z,781.88
2023-05-09T14:57:29.932Z,410.62
2023-05-09T14:58:29.922Z,534.38
2023-05-09T14:59:29.912Z,309.38
2023-05-09T15:00:30.106Z,725.62
2023-05-09T15:01:29.936Z,686.25
2023-05-09T15:02:29.956Z,798.75
2023-05-09T15:03:29.888Z,798.75
2023-05-09T15:04:29.926Z,798.75
2023-05-09T15:05:29.857Z,793.12
2023-05-09T15:06:29.848Z,843.75
2023-05-09T15:07:29.826Z,849.38
2023-05-09T15:08:29.844Z,804.38
2023-05-09T15:09:29.829Z,798.75
2023-05-09T15:10:29.816Z,804.38
2023-05-09T15:11:36.441Z,787.50
2023-05-09T15:12:29.852Z,765.00
2023-05-09T15:13:29.914Z,753.75
2023-05-09T15:14:29.799Z,765.00
2023-05-09T15:15:29.743Z,776.25
2023-05-09T15:16:29.788Z,787.50
2023-05-09T15:17:29.759Z,787.50
2023-05-09T15:18:29.730Z,781.88
2023-05-09T15:19:29.696Z,770.62
2023-05-09T15:20:29.695Z,781.88
2023-05-09T15:21:29.704Z,787.50
2023-05-09T15:22:29.671Z,815.62
2023-05-09T15:23:29.732Z,821.25
2023-05-09T15:24:29.712Z,776.25
2023-05-09T15:25:29.640Z,753.75
2023-05-09T15:26:29.678Z,736.88
2023-05-09T15:27:29.640Z,708.75
2023-05-09T15:28:29.688Z,680.62
2023-05-09T15:29:29.607Z,680.62
2023-05-09T15:30:29.623Z,511.88
2023-05-09T15:31:31.103Z,748.12
2023-05-09T15:32:29.610Z,736.88
2023-05-09T15:33:29.580Z,686.25
2023-05-09T15:34:29.553Z,697.50
2023-05-09T15:35:29.567Z,725.62
2023-05-09T15:36:29.607Z,725.62
2023-05-09T15:37:29.544Z,731.25
2023-05-09T15:38:29.531Z,725.62
2023-05-09T15:39:29.514Z,736.88
2023-05-09T15:40:29.547Z,725.62
2023-05-09T15:41:29.512Z,742.50
2023-05-09T15:42:29.479Z,753.75
2023-05-09T15:43:29.455Z,753.75
2023-05-09T15:44:29.656Z,753.75
2023-05-09T15:45:29.469Z,770.62
2023-05-09T15:46:29.543Z,765.00
2023-05-09T15:47:29.512Z,753.75
2023-05-09T15:48:29.411Z,736.88
2023-05-09T15:49:29.439Z,736.88
2023-05-09T15:50:29.383Z,736.88
2023-05-09T15:51:29.372Z,725.62
2023-05-09T15:52:29.493Z,736.88
2023-05-09T15:53:29.387Z,770.62
2023-05-09T15:54:29.391Z,793.12
2023-05-09T15:55:29.360Z,787.50
2023-05-09T15:56:29.320Z,776.25
2023-05-09T15:57:29.351Z,765.00
2023-05-09T15:58:29.306Z,736.88
2023-05-09T15:59:29.304Z,742.50
2023-05-09T16:00:29.298Z,765.00
2023-05-09T16:01:29.286Z,781.88
2023-05-09T16:02:29.349Z,776.25
2023-05-09T16:03:29.287Z,770.62
2023-05-09T16:04:29.235Z,781.88
2023-05-09T16:05:29.229Z,759.38
2023-05-09T16:06:29.242Z,731.25
2023-05-09T16:07:29.235Z,742.50
2023-05-09T16:08:29.205Z,708.75
2023-05-09T16:09:29.316Z,714.38
2023-05-09T16:10:29.189Z,703.12
2023-05-09T16:11:29.184Z,675.00
2023-05-09T16:12:29.150Z,680.62
2023-05-09T16:13:29.231Z,703.12
2023-05-09T16:14:29.169Z,703.12
2023-05-09T16:15:29.128Z,680.62
2023-05-09T16:16:29.148Z,635.62
2023-05-09T16:17:29.112Z,613.12
2023-05-09T16:18:29.097Z,579.38
2023-05-09T16:19:29.077Z,601.88
2023-05-09T16:20:29.081Z,686.25
2023-05-09T16:21:29.198Z,714.38
2023-05-09T16:22:29.060Z,714.38
2023-05-09T16:23:29.043Z,691.88
2023-05-09T16:24:29.041Z,686.25
2023-05-09T16:25:29.029Z,708.75
2023-05-09T16:26:29.014Z,731.25
2023-05-09T16:27:29.017Z,708.75
2023-05-09T16:28:28.999Z,675.00
2023-05-09T16:29:28.987Z,635.62
2023-05-09T16:30:28.954Z,624.38
2023-05-09T16:31:29.011Z,635.62
2023-05-09T16:32:29.025Z,669.38
2023-05-09T16:33:28.945Z,697.50
2023-05-09T16:34:28.964Z,680.62
2023-05-09T16:35:28.928Z,624.38
2023-05-09T16:36:28.923Z,568.12
2023-05-09T16:37:28.900Z,540.00
2023-05-09T16:38:28.885Z,562.50